sensor_id;sensor_type;location;lat;lon;timestamp;temperature;humidity
41256;DHT22;26989;45.524;10.938;2023-04-06T00:00:14;5.20;90.60
41256;DHT22;26989;45.524;10.938;2023-04-06T00:02:42;5.20;90.50
41256;DHT22;26989;45.524;10.938;2023-04-06T00:05:09;5.20;90.20
41256;DHT22;26989;45.524;10.938;2023-04-06T00:07:36;5.30;90.10
41256;DHT22;26989;45.524;10.938;2023-04-06T00:10:04;5.30;90.20
41256;DHT22;26989;45.524;10.938;2023-04-06T00:12:31;5.30;90.40
41256;DHT22;26989;45.524;10.938;2023-04-06T00:14:58;5.30;90.00
41256;DHT22;26989;45.524;10.938;2023-04-06T00:17:24;5.20;90.10
41256;DHT22;26989;45.524;10.938;2023-04-06T00:19:52;5.10;90.60
41256;DHT22;26989;45.524;10.938;2023-04-06T00:22:18;5.00;90.70
41256;DHT22;26989;45.524;10.938;2023-04-06T00:24:45;5.00;90.90
41256;DHT22;26989;45.524;10.938;2023-04-06T00:27:12;4.80;91.20
41256;DHT22;26989;45.524;10.938;2023-04-06T00:29:39;4.80;91.70
41256;DHT22;26989;45.524;10.938;2023-04-06T00:32:06;4.70;91.50
41256;DHT22;26989;45.524;10.938;2023-04-06T00:34:33;4.70;91.40
41256;DHT22;26989;45.524;10.938;2023-04-06T00:37:00;4.80;91.40
41256;DHT22;26989;45.524;10.938;2023-04-06T00:39:27;4.80;91.70
41256;DHT22;26989;45.524;10.938;2023-04-06T00:41:54;4.70;91.10
41256;DHT22;26989;45.524;10.938;2023-04-06T00:44:21;4.60;91.50
41256;DHT22;26989;45.524;10.938;2023-04-06T00:46:48;4.60;91.60
41256;DHT22;26989;45.524;10.938;2023-04-06T00:49:15;4.60;91.50
41256;DHT22;26989;45.524;10.938;2023-04-06T00:51:42;4.60;91.40
41256;DHT22;26989;45.524;10.938;2023-04-06T00:54:10;4.60;91.30
41256;DHT22;26989;45.524;10.938;2023-04-06T00:56:37;4.60;91.20
41256;DHT22;26989;45.524;10.938;2023-04-06T00:59:04;4.70;91.40
41256;DHT22;26989;45.524;10.938;2023-04-06T01:01:32;4.60;91.40
41256;DHT22;26989;45.524;10.938;2023-04-06T01:03:59;4.60;91.60
41256;DHT22;26989;45.524;10.938;2023-04-06T01:06:26;4.60;91.60
41256;DHT22;26989;45.524;10.938;2023-04-06T01:08:57;4.50;91.90
41256;DHT22;26989;45.524;10.938;2023-04-06T01:11:23;4.50;91.90
41256;DHT22;26989;45.524;10.938;2023-04-06T01:13:50;4.60;91.10
41256;DHT22;26989;45.524;10.938;2023-04-06T01:16:17;4.60;91.20
41256;DHT22;26989;45.524;10.938;2023-04-06T01:18:44;4.50;91.30
41256;DHT22;26989;45.524;10.938;2023-04-06T01:21:11;4.70;90.70
41256;DHT22;26989;45.524;10.938;2023-04-06T01:23:44;4.50;91.40
41256;DHT22;26989;45.524;10.938;2023-04-06T01:26:12;4.40;91.40
41256;DHT22;26989;45.524;10.938;2023-04-06T01:28:39;4.40;91.20
41256;DHT22;26989;45.524;10.938;2023-04-06T01:31:08;4.30;91.30
41256;DHT22;26989;45.524;10.938;2023-04-06T01:33:35;4.30;91.90
41256;DHT22;26989;45.524;10.938;2023-04-06T01:36:03;4.10;91.80
41256;DHT22;26989;45.524;10.938;2023-04-06T01:38:30;4.20;91.70
41256;DHT22;26989;45.524;10.938;2023-04-06T01:40:57;4.10;91.80
41256;DHT22;26989;45.524;10.938;2023-04-06T01:43:24;4.10;91.90
41256;DHT22;26989;45.524;10.938;2023-04-06T01:45:51;4.00;92.10
41256;DHT22;26989;45.524;10.938;2023-04-06T01:48:18;3.90;92.10
41256;DHT22;26989;45.524;10.938;2023-04-06T01:50:45;3.90;92.20
41256;DHT22;26989;45.524;10.938;2023-04-06T01:53:12;3.80;92.20
41256;DHT22;26989;45.524;10.938;2023-04-06T01:55:39;3.70;92.20
41256;DHT22;26989;45.524;10.938;2023-04-06T01:58:06;3.70;92.20
41256;DHT22;26989;45.524;10.938;2023-04-06T02:00:33;3.60;92.40
41256;DHT22;26989;45.524;10.938;2023-04-06T02:03:00;3.50;92.60
41256;DHT22;26989;45.524;10.938;2023-04-06T02:05:29;3.50;92.60
41256;DHT22;26989;45.524;10.938;2023-04-06T02:07:56;3.60;92.30
41256;DHT22;26989;45.524;10.938;2023-04-06T02:10:23;3.60;92.60
41256;DHT22;26989;45.524;10.938;2023-04-06T02:12:51;3.40;92.70
41256;DHT22;26989;45.524;10.938;2023-04-06T02:15:18;3.40;92.90
41256;DHT22;26989;45.524;10.938;2023-04-06T02:17:44;3.40;92.90
41256;DHT22;26989;45.524;10.938;2023-04-06T02:20:11;3.40;92.90
41256;DHT22;26989;45.524;10.938;2023-04-06T02:22:39;3.30;93.00
41256;DHT22;26989;45.524;10.938;2023-04-06T02:25:07;3.30;93.20
41256;DHT22;26989;45.524;10.938;2023-04-06T02:27:34;3.30;93.20
41256;DHT22;26989;45.524;10.938;2023-04-06T02:30:05;3.30;93.20
41256;DHT22;26989;45.524;10.938;2023-04-06T02:32:32;3.30;93.00
41256;DHT22;26989;45.524;10.938;2023-04-06T02:34:59;3.40;93.00
41256;DHT22;26989;45.524;10.938;2023-04-06T02:37:26;3.40;92.80
41256;DHT22;26989;45.524;10.938;2023-04-06T02:39:53;3.40;92.80
41256;DHT22;26989;45.524;10.938;2023-04-06T02:42:20;3.50;92.80
41256;DHT22;26989;45.524;10.938;2023-04-06T02:44:47;3.50;92.80
41256;DHT22;26989;45.524;10.938;2023-04-06T02:47:14;3.50;92.90
41256;DHT22;26989;45.524;10.938;2023-04-06T02:49:41;3.40;93.00
41256;DHT22;26989;45.524;10.938;2023-04-06T02:52:08;3.50;93.00
41256;DHT22;26989;45.524;10.938;2023-04-06T02:54:35;3.50;93.00
41256;DHT22;26989;45.524;10.938;2023-04-06T02:57:02;3.60;92.80
41256;DHT22;26989;45.524;10.938;2023-04-06T02:59:29;3.60;92.70
41256;DHT22;26989;45.524;10.938;2023-04-06T03:01:56;3.60;92.80
41256;DHT22;26989;45.524;10.938;2023-04-06T03:04:23;3.60;92.80
41256;DHT22;26989;45.524;10.938;2023-04-06T03:06:53;3.60;92.50
41256;DHT22;26989;45.524;10.938;2023-04-06T03:09:20;3.70;92.30
41256;DHT22;26989;45.524;10.938;2023-04-06T03:11:47;3.80;92.40
41256;DHT22;26989;45.524;10.938;2023-04-06T03:14:14;3.80;92.40
41256;DHT22;26989;45.524;10.938;2023-04-06T03:16:41;3.90;92.10
41256;DHT22;26989;45.524;10.938;2023-04-06T03:19:11;3.90;92.10
41256;DHT22;26989;45.524;10.938;2023-04-06T03:21:42;3.90;92.40
41256;DHT22;26989;45.524;10.938;2023-04-06T03:24:09;3.90;92.50
41256;DHT22;26989;45.524;10.938;2023-04-06T03:26:36;3.80;92.80
41256;DHT22;26989;45.524;10.938;2023-04-06T03:29:02;3.80;92.90
41256;DHT22;26989;45.524;10.938;2023-04-06T03:31:29;3.80;92.90
41256;DHT22;26989;45.524;10.938;2023-04-06T03:33:56;3.80;93.00
41256;DHT22;26989;45.524;10.938;2023-04-06T03:36:23;3.80;93.10
41256;DHT22;26989;45.524;10.938;2023-04-06T03:38:51;3.80;93.30
41256;DHT22;26989;45.524;10.938;2023-04-06T03:41:20;3.80;93.50
41256;DHT22;26989;45.524;10.938;2023-04-06T03:43:47;3.80;93.50
41256;DHT22;26989;45.524;10.938;2023-04-06T03:46:15;3.80;93.50
41256;DHT22;26989;45.524;10.938;2023-04-06T03:48:42;3.80;93.70
41256;DHT22;26989;45.524;10.938;2023-04-06T03:51:09;3.80;93.60
41256;DHT22;26989;45.524;10.938;2023-04-06T03:53:36;3.90;93.40
41256;DHT22;26989;45.524;10.938;2023-04-06T03:56:03;3.90;93.40
41256;DHT22;26989;45.524;10.938;2023-04-06T03:58:31;4.00;93.50
41256;DHT22;26989;45.524;10.938;2023-04-06T04:00:58;3.90;93.40
41256;DHT22;26989;45.524;10.938;2023-04-06T04:03:25;4.00;93.40
41256;DHT22;26989;45.524;10.938;2023-04-06T04:05:54;4.00;93.20
41256;DHT22;26989;45.524;10.938;2023-04-06T04:08:24;4.00;93.30
41256;DHT22;26989;45.524;10.938;2023-04-06T04:10:51;4.00;93.50
41256;DHT22;26989;45.524;10.938;2023-04-06T04:13:19;3.90;93.70
41256;DHT22;26989;45.524;10.938;2023-04-06T04:15:46;4.00;93.70
41256;DHT22;26989;45.524;10.938;2023-04-06T04:18:14;3.90;93.60
41256;DHT22;26989;45.524;10.938;2023-04-06T04:20:41;3.90;93.60
41256;DHT22;26989;45.524;10.938;2023-04-06T04:23:08;4.00;93.50
41256;DHT22;26989;45.524;10.938;2023-04-06T04:25:35;4.10;93.50
41256;DHT22;26989;45.524;10.938;2023-04-06T04:28:02;4.10;93.10
41256;DHT22;26989;45.524;10.938;2023-04-06T04:30:29;4.10;93.30
41256;DHT22;26989;45.524;10.938;2023-04-06T04:32:56;4.00;93.30
41256;DHT22;26989;45.524;10.938;2023-04-06T04:35:23;4.00;93.50
41256;DHT22;26989;45.524;10.938;2023-04-06T04:37:50;3.90;93.60
41256;DHT22;26989;45.524;10.938;2023-04-06T04:40:17;3.90;93.60
41256;DHT22;26989;45.524;10.938;2023-04-06T04:42:44;3.80;93.70
41256;DHT22;26989;45.524;10.938;2023-04-06T04:45:12;3.80;93.70
41256;DHT22;26989;45.524;10.938;2023-04-06T04:47:39;3.80;93.70
41256;DHT22;26989;45.524;10.938;2023-04-06T04:50:06;3.90;93.70
41256;DHT22;26989;45.524;10.938;2023-04-06T04:52:34;3.80;93.90
41256;DHT22;26989;45.524;10.938;2023-04-06T04:55:04;3.90;93.80
41256;DHT22;26989;45.524;10.938;2023-04-06T04:57:31;3.90;93.90
41256;DHT22;26989;45.524;10.938;2023-04-06T04:59:58;3.80;93.90
41256;DHT22;26989;45.524;10.938;2023-04-06T05:02:25;3.80;94.00
41256;DHT22;26989;45.524;10.938;2023-04-06T05:04:53;3.80;93.90
41256;DHT22;26989;45.524;10.938;2023-04-06T05:07:19;3.80;93.90
41256;DHT22;26989;45.524;10.938;2023-04-06T05:09:47;3.70;94.10
41256;DHT22;26989;45.524;10.938;2023-04-06T05:12:14;3.80;93.90
41256;DHT22;26989;45.524;10.938;2023-04-06T05:14:43;3.80;94.10
41256;DHT22;26989;45.524;10.938;2023-04-06T05:17:11;3.80;94.00
41256;DHT22;26989;45.524;10.938;2023-04-06T05:19:38;3.80;93.80
41256;DHT22;26989;45.524;10.938;2023-04-06T05:22:05;3.90;93.90
41256;DHT22;26989;45.524;10.938;2023-04-06T05:24:32;4.00;93.70
41256;DHT22;26989;45.524;10.938;2023-04-06T05:27:06;4.00;93.70
41256;DHT22;26989;45.524;10.938;2023-04-06T05:29:33;4.10;93.70
41256;DHT22;26989;45.524;10.938;2023-04-06T05:32:01;4.20;93.70
41256;DHT22;26989;45.524;10.938;2023-04-06T05:34:28;4.10;93.40
41256;DHT22;26989;45.524;10.938;2023-04-06T05:36:55;4.20;93.60
41256;DHT22;26989;45.524;10.938;2023-04-06T05:39:22;4.30;92.90
41256;DHT22;26989;45.524;10.938;2023-04-06T05:41:49;4.40;92.70
41256;DHT22;26989;45.524;10.938;2023-04-06T05:44:16;4.70;92.30
41256;DHT22;26989;45.524;10.938;2023-04-06T05:46:43;5.70;91.10
41256;DHT22;26989;45.524;10.938;2023-04-06T05:49:11;7.20;90.10
41256;DHT22;26989;45.524;10.938;2023-04-06T05:51:38;7.90;87.80
41256;DHT22;26989;45.524;10.938;2023-04-06T05:54:05;8.10;87.50
41256;DHT22;26989;45.524;10.938;2023-04-06T05:56:32;8.80;87.10
41256;DHT22;26989;45.524;10.938;2023-04-06T05:58:58;8.40;87.20
41256;DHT22;26989;45.524;10.938;2023-04-06T06:01:26;9.70;86.40
41256;DHT22;26989;45.524;10.938;2023-04-06T06:03:53;9.80;85.90
41256;DHT22;26989;45.524;10.938;2023-04-06T06:06:23;9.50;87.00
41256;DHT22;26989;45.524;10.938;2023-04-06T06:08:52;10.00;85.80
41256;DHT22;26989;45.524;10.938;2023-04-06T06:11:19;10.00;84.50
41256;DHT22;26989;45.524;10.938;2023-04-06T06:13:46;10.20;84.40
41256;DHT22;26989;45.524;10.938;2023-04-06T06:16:13;11.30;83.60
41256;DHT22;26989;45.524;10.938;2023-04-06T06:18:40;12.60;81.50
41256;DHT22;26989;45.524;10.938;2023-04-06T06:21:07;13.20;76.90
41256;DHT22;26989;45.524;10.938;2023-04-06T06:23:34;14.00;77.10
41256;DHT22;26989;45.524;10.938;2023-04-06T06:26:02;13.00;74.80
41256;DHT22;26989;45.524;10.938;2023-04-06T06:28:28;12.20;77.60
41256;DHT22;26989;45.524;10.938;2023-04-06T06:30:56;11.90;78.50
41256;DHT22;26989;45.524;10.938;2023-04-06T06:33:23;12.00;79.70
41256;DHT22;26989;45.524;10.938;2023-04-06T06:35:50;13.30;78.40
41256;DHT22;26989;45.524;10.938;2023-04-06T06:38:18;13.70;77.20
41256;DHT22;26989;45.524;10.938;2023-04-06T06:40:49;12.60;78.60
41256;DHT22;26989;45.524;10.938;2023-04-06T06:43:16;11.70;77.70
41256;DHT22;26989;45.524;10.938;2023-04-06T06:45:44;10.90;79.30
41256;DHT22;26989;45.524;10.938;2023-04-06T06:48:11;10.40;80.80
41256;DHT22;26989;45.524;10.938;2023-04-06T06:50:39;9.90;81.20
41256;DHT22;26989;45.524;10.938;2023-04-06T06:53:06;10.10;81.50
41256;DHT22;26989;45.524;10.938;2023-04-06T06:55:33;9.60;82.90
41256;DHT22;26989;45.524;10.938;2023-04-06T06:58:00;9.40;83.20
41256;DHT22;26989;45.524;10.938;2023-04-06T07:00:27;9.00;82.30
41256;DHT22;26989;45.524;10.938;2023-04-06T07:02:54;9.10;81.50
41256;DHT22;26989;45.524;10.938;2023-04-06T07:05:21;9.20;81.90
41256;DHT22;26989;45.524;10.938;2023-04-06T07:07:55;9.10;82.90
41256;DHT22;26989;45.524;10.938;2023-04-06T07:10:22;9.20;82.90
41256;DHT22;26989;45.524;10.938;2023-04-06T07:12:49;9.10;84.20
41256;DHT22;26989;45.524;10.938;2023-04-06T07:15:16;9.20;83.10
41256;DHT22;26989;45.524;10.938;2023-04-06T07:17:44;9.20;83.60
41256;DHT22;26989;45.524;10.938;2023-04-06T07:20:14;9.20;83.50
41256;DHT22;26989;45.524;10.938;2023-04-06T07:22:42;9.20;84.60
41256;DHT22;26989;45.524;10.938;2023-04-06T07:25:11;9.20;85.10
41256;DHT22;26989;45.524;10.938;2023-04-06T07:27:41;9.20;86.10
41256;DHT22;26989;45.524;10.938;2023-04-06T07:30:11;9.30;85.40
41256;DHT22;26989;45.524;10.938;2023-04-06T07:32:38;9.40;84.80
41256;DHT22;26989;45.524;10.938;2023-04-06T07:35:06;9.40;84.20
41256;DHT22;26989;45.524;10.938;2023-04-06T07:37:33;9.40;83.90
41256;DHT22;26989;45.524;10.938;2023-04-06T07:40:00;9.20;85.70
41256;DHT22;26989;45.524;10.938;2023-04-06T07:42:27;9.40;86.60
41256;DHT22;26989;45.524;10.938;2023-04-06T07:44:54;9.50;84.80
41256;DHT22;26989;45.524;10.938;2023-04-06T07:47:21;9.50;82.60
41256;DHT22;26989;45.524;10.938;2023-04-06T07:49:48;9.60;83.50
41256;DHT22;26989;45.524;10.938;2023-04-06T07:52:15;9.60;82.10
41256;DHT22;26989;45.524;10.938;2023-04-06T07:54:42;9.60;82.00
41256;DHT22;26989;45.524;10.938;2023-04-06T07:57:09;9.70;83.20
41256;DHT22;26989;45.524;10.938;2023-04-06T07:59:36;9.80;82.80
41256;DHT22;26989;45.524;10.938;2023-04-06T08:02:03;9.90;82.40
41256;DHT22;26989;45.524;10.938;2023-04-06T08:04:30;10.00;81.60
41256;DHT22;26989;45.524;10.938;2023-04-06T08:06:57;9.90;80.00
41256;DHT22;26989;45.524;10.938;2023-04-06T08:09:24;10.00;80.40
41256;DHT22;26989;45.524;10.938;2023-04-06T08:11:53;10.00;80.60
41256;DHT22;26989;45.524;10.938;2023-04-06T08:14:20;10.00;79.60
41256;DHT22;26989;45.524;10.938;2023-04-06T08:16:47;10.00;79.70
41256;DHT22;26989;45.524;10.938;2023-04-06T08:19:14;10.10;80.30
41256;DHT22;26989;45.524;10.938;2023-04-06T08:21:44;10.20;81.30
41256;DHT22;26989;45.524;10.938;2023-04-06T08:24:12;10.30;82.10
41256;DHT22;26989;45.524;10.938;2023-04-06T08:26:39;10.40;80.40
41256;DHT22;26989;45.524;10.938;2023-04-06T08:29:06;10.30;80.60
41256;DHT22;26989;45.524;10.938;2023-04-06T08:31:36;10.30;79.80
41256;DHT22;26989;45.524;10.938;2023-04-06T08:34:04;10.40;79.90
41256;DHT22;26989;45.524;10.938;2023-04-06T08:36:33;10.40;80.30
41256;DHT22;26989;45.524;10.938;2023-04-06T08:39:00;10.40;78.10
41256;DHT22;26989;45.524;10.938;2023-04-06T08:41:28;10.50;80.40
41256;DHT22;26989;45.524;10.938;2023-04-06T08:44:02;10.60;77.30
41256;DHT22;26989;45.524;10.938;2023-04-06T08:46:30;10.60;78.20
41256;DHT22;26989;45.524;10.938;2023-04-06T08:48:58;10.80;79.30
41256;DHT22;26989;45.524;10.938;2023-04-06T08:51:26;10.70;77.80
41256;DHT22;26989;45.524;10.938;2023-04-06T08:53:54;10.70;79.00
41256;DHT22;26989;45.524;10.938;2023-04-06T08:56:22;10.80;76.90
41256;DHT22;26989;45.524;10.938;2023-04-06T08:58:51;10.90;76.50
41256;DHT22;26989;45.524;10.938;2023-04-06T09:01:23;11.00;77.00
41256;DHT22;26989;45.524;10.938;2023-04-06T09:03:57;11.10;75.90
41256;DHT22;26989;45.524;10.938;2023-04-06T09:06:25;10.90;76.60
41256;DHT22;26989;45.524;10.938;2023-04-06T09:08:55;10.90;76.60
41256;DHT22;26989;45.524;10.938;2023-04-06T09:11:23;11.00;76.80
41256;DHT22;26989;45.524;10.938;2023-04-06T09:13:52;10.80;78.20
41256;DHT22;26989;45.524;10.938;2023-04-06T09:16:20;10.70;78.70
41256;DHT22;26989;45.524;10.938;2023-04-06T09:18:48;11.00;79.40
41256;DHT22;26989;45.524;10.938;2023-04-06T09:21:19;11.00;78.40
41256;DHT22;26989;45.524;10.938;2023-04-06T09:24:01;11.20;78.40
41256;DHT22;26989;45.524;10.938;2023-04-06T09:26:30;11.20;78.40
41256;DHT22;26989;45.524;10.938;2023-04-06T09:31:31;11.10;77.80
41256;DHT22;26989;45.524;10.938;2023-04-06T09:34:01;11.10;78.60
41256;DHT22;26989;45.524;10.938;2023-04-06T09:36:32;11.10;77.80
41256;DHT22;26989;45.524;10.938;2023-04-06T09:39:01;10.90;77.30
41256;DHT22;26989;45.524;10.938;2023-04-06T09:41:35;11.10;76.90
41256;DHT22;26989;45.524;10.938;2023-04-06T09:46:38;11.10;75.60
41256;DHT22;26989;45.524;10.938;2023-04-06T09:49:30;11.20;76.60
41256;DHT22;26989;45.524;10.938;2023-04-06T09:52:01;11.30;76.60
41256;DHT22;26989;45.524;10.938;2023-04-06T09:54:30;11.40;76.50
41256;DHT22;26989;45.524;10.938;2023-04-06T09:57:03;11.40;75.90
41256;DHT22;26989;45.524;10.938;2023-04-06T09:59:42;11.30;76.80
41256;DHT22;26989;45.524;10.938;2023-04-06T10:02:39;11.20;76.90
41256;DHT22;26989;45.524;10.938;2023-04-06T10:05:13;11.00;76.60
41256;DHT22;26989;45.524;10.938;2023-04-06T10:07:43;11.20;78.00
41256;DHT22;26989;45.524;10.938;2023-04-06T10:10:25;11.10;76.70
41256;DHT22;26989;45.524;10.938;2023-04-06T10:12:52;11.30;77.20
41256;DHT22;26989;45.524;10.938;2023-04-06T10:15:20;11.30;76.60
41256;DHT22;26989;45.524;10.938;2023-04-06T10:17:48;11.50;77.40
41256;DHT22;26989;45.524;10.938;2023-04-06T10:23:10;11.40;77.60
41256;DHT22;26989;45.524;10.938;2023-04-06T10:25:57;11.40;77.30
41256;DHT22;26989;45.524;10.938;2023-04-06T10:28:34;11.40;77.10
41256;DHT22;26989;45.524;10.938;2023-04-06T10:31:05;11.40;78.00
41256;DHT22;26989;45.524;10.938;2023-04-06T10:33:33;11.30;78.10
41256;DHT22;26989;45.524;10.938;2023-04-06T10:36:21;11.40;78.90
41256;DHT22;26989;45.524;10.938;2023-04-06T10:38:55;11.40;78.40
41256;DHT22;26989;45.524;10.938;2023-04-06T10:41:49;11.40;79.20
41256;DHT22;26989;45.524;10.938;2023-04-06T10:44:21;11.50;79.30
41256;DHT22;26989;45.524;10.938;2023-04-06T10:46:56;11.60;80.20
41256;DHT22;26989;45.524;10.938;2023-04-06T10:49:24;11.70;79.20
41256;DHT22;26989;45.524;10.938;2023-04-06T10:51:57;11.80;79.50
41256;DHT22;26989;45.524;10.938;2023-04-06T10:54:26;11.70;79.20
41256;DHT22;26989;45.524;10.938;2023-04-06T10:56:53;11.70;79.20
41256;DHT22;26989;45.524;10.938;2023-04-06T10:59:21;11.90;79.00
41256;DHT22;26989;45.524;10.938;2023-04-06T11:01:49;11.80;78.80
41256;DHT22;26989;45.524;10.938;2023-04-06T11:04:20;11.70;79.70
41256;DHT22;26989;45.524;10.938;2023-04-06T11:06:49;11.50;79.00
41256;DHT22;26989;45.524;10.938;2023-04-06T11:09:27;11.60;80.50
41256;DHT22;26989;45.524;10.938;2023-04-06T11:11:54;11.70;80.00
41256;DHT22;26989;45.524;10.938;2023-04-06T11:14:22;11.80;80.60
41256;DHT22;26989;45.524;10.938;2023-04-06T11:16:49;11.70;78.60
41256;DHT22;26989;45.524;10.938;2023-04-06T11:19:17;11.80;80.10
41256;DHT22;26989;45.524;10.938;2023-04-06T11:21:48;11.90;80.00
41256;DHT22;26989;45.524;10.938;2023-04-06T11:24:23;11.90;78.80
41256;DHT22;26989;45.524;10.938;2023-04-06T11:26:58;11.70;79.40
41256;DHT22;26989;45.524;10.938;2023-04-06T11:29:30;11.90;80.10
41256;DHT22;26989;45.524;10.938;2023-04-06T11:32:04;12.00;79.70
41256;DHT22;26989;45.524;10.938;2023-04-06T11:34:36;12.10;79.50
41256;DHT22;26989;45.524;10.938;2023-04-06T11:37:09;12.10;79.70
41256;DHT22;26989;45.524;10.938;2023-04-06T11:39:43;12.30;79.70
41256;DHT22;26989;45.524;10.938;2023-04-06T11:42:10;12.40;80.30
41256;DHT22;26989;45.524;10.938;2023-04-06T11:44:39;12.50;79.40
41256;DHT22;26989;45.524;10.938;2023-04-06T11:47:31;12.40;79.50
41256;DHT22;26989;45.524;10.938;2023-04-06T11:50:09;12.40;79.30
41256;DHT22;26989;45.524;10.938;2023-04-06T11:52:38;12.40;79.30
41256;DHT22;26989;45.524;10.938;2023-04-06T11:57:39;12.40;78.20
41256;DHT22;26989;45.524;10.938;2023-04-06T12:00:07;12.40;79.70
41256;DHT22;26989;45.524;10.938;2023-04-06T12:02:39;12.60;79.00
41256;DHT22;26989;45.524;10.938;2023-04-06T12:05:06;12.60;78.40
41256;DHT22;26989;45.524;10.938;2023-04-06T12:07:35;12.70;79.50
41256;DHT22;26989;45.524;10.938;2023-04-06T12:10:03;12.70;78.40
41256;DHT22;26989;45.524;10.938;2023-04-06T12:12:31;12.10;78.20
41256;DHT22;26989;45.524;10.938;2023-04-06T12:14:58;12.20;79.60
41256;DHT22;26989;45.524;10.938;2023-04-06T12:17:25;12.50;79.50
41256;DHT22;26989;45.524;10.938;2023-04-06T12:19:52;12.80;79.10
41256;DHT22;26989;45.524;10.938;2023-04-06T12:22:19;12.90;79.80
41256;DHT22;26989;45.524;10.938;2023-04-06T12:24:46;12.90;78.10
41256;DHT22;26989;45.524;10.938;2023-04-06T12:27:14;13.00;79.60
41256;DHT22;26989;45.524;10.938;2023-04-06T12:29:42;13.10;78.10
41256;DHT22;26989;45.524;10.938;2023-04-06T12:32:09;13.10;77.80
41256;DHT22;26989;45.524;10.938;2023-04-06T12:34:37;13.00;79.70
41256;DHT22;26989;45.524;10.938;2023-04-06T12:37:04;13.10;78.80
41256;DHT22;26989;45.524;10.938;2023-04-06T12:39:31;13.10;78.70
41256;DHT22;26989;45.524;10.938;2023-04-06T12:41:58;13.10;78.50
41256;DHT22;26989;45.524;10.938;2023-04-06T12:44:25;13.00;79.00
41256;DHT22;26989;45.524;10.938;2023-04-06T12:46:52;13.10;78.90
41256;DHT22;26989;45.524;10.938;2023-04-06T12:49:19;13.10;78.50
41256;DHT22;26989;45.524;10.938;2023-04-06T12:51:46;13.20;78.80
41256;DHT22;26989;45.524;10.938;2023-04-06T12:54:13;13.30;78.00
41256;DHT22;26989;45.524;10.938;2023-04-06T12:56:43;13.50;78.80
41256;DHT22;26989;45.524;10.938;2023-04-06T12:59:10;13.60;78.30
41256;DHT22;26989;45.524;10.938;2023-04-06T13:01:38;13.50;77.00
41256;DHT22;26989;45.524;10.938;2023-04-06T13:04:06;13.50;77.90
41256;DHT22;26989;45.524;10.938;2023-04-06T13:06:33;13.60;77.90
41256;DHT22;26989;45.524;10.938;2023-04-06T13:09:00;13.60;76.50
41256;DHT22;26989;45.524;10.938;2023-04-06T13:11:27;13.40;77.40
41256;DHT22;26989;45.524;10.938;2023-04-06T13:14:03;13.60;78.80
41256;DHT22;26989;45.524;10.938;2023-04-06T13:16:30;13.80;77.70
41256;DHT22;26989;45.524;10.938;2023-04-06T13:18:59;13.90;77.70
41256;DHT22;26989;45.524;10.938;2023-04-06T13:21:28;13.90;77.00
41256;DHT22;26989;45.524;10.938;2023-04-06T13:23:55;13.70;77.00
41256;DHT22;26989;45.524;10.938;2023-04-06T13:26:22;13.40;77.40
41256;DHT22;26989;45.524;10.938;2023-04-06T13:28:48;13.60;78.00
41256;DHT22;26989;45.524;10.938;2023-04-06T13:31:16;13.80;77.20
41256;DHT22;26989;45.524;10.938;2023-04-06T13:33:46;13.80;78.90
41256;DHT22;26989;45.524;10.938;2023-04-06T13:36:13;14.10;78.50
41256;DHT22;26989;45.524;10.938;2023-04-06T13:38:43;14.20;78.00
41256;DHT22;26989;45.524;10.938;2023-04-06T13:41:19;14.30;77.80
41256;DHT22;26989;45.524;10.938;2023-04-06T13:43:47;14.40;77.10
41256;DHT22;26989;45.524;10.938;2023-04-06T13:46:14;14.40;77.20
41256;DHT22;26989;45.524;10.938;2023-04-06T13:48:42;14.20;76.90
41256;DHT22;26989;45.524;10.938;2023-04-06T13:51:11;14.30;77.40
41256;DHT22;26989;45.524;10.938;2023-04-06T13:53:38;14.40;77.50
41256;DHT22;26989;45.524;10.938;2023-04-06T13:56:07;14.60;77.30
41256;DHT22;26989;45.524;10.938;2023-04-06T13:58:34;14.70;78.10
41256;DHT22;26989;45.524;10.938;2023-04-06T14:01:07;14.80;77.20
41256;DHT22;26989;45.524;10.938;2023-04-06T14:03:36;14.60;77.00
41256;DHT22;26989;45.524;10.938;2023-04-06T14:06:13;14.70;76.20
41256;DHT22;26989;45.524;10.938;2023-04-06T14:08:43;14.30;75.80
41256;DHT22;26989;45.524;10.938;2023-04-06T14:11:13;14.30;76.60
41256;DHT22;26989;45.524;10.938;2023-04-06T14:13:40;14.40;76.70
41256;DHT22;26989;45.524;10.938;2023-04-06T14:16:08;14.40;76.30
41256;DHT22;26989;45.524;10.938;2023-04-06T14:18:37;14.60;76.70
41256;DHT22;26989;45.524;10.938;2023-04-06T14:21:04;14.50;77.20
41256;DHT22;26989;45.524;10.938;2023-04-06T14:23:31;14.50;76.30
41256;DHT22;26989;45.524;10.938;2023-04-06T14:26:07;14.60;76.20
41256;DHT22;26989;45.524;10.938;2023-04-06T14:28:35;14.80;76.20
41256;DHT22;26989;45.524;10.938;2023-04-06T14:31:10;14.90;76.40
41256;DHT22;26989;45.524;10.938;2023-04-06T14:33:39;14.80;76.20
41256;DHT22;26989;45.524;10.938;2023-04-06T14:36:06;14.90;75.80
41256;DHT22;26989;45.524;10.938;2023-04-06T14:38:34;14.70;75.70
41256;DHT22;26989;45.524;10.938;2023-04-06T14:41:01;14.90;76.00
41256;DHT22;26989;45.524;10.938;2023-04-06T14:43:28;14.90;75.50
41256;DHT22;26989;45.524;10.938;2023-04-06T14:46:01;14.90;76.40
41256;DHT22;26989;45.524;10.938;2023-04-06T14:48:28;14.70;76.20
41256;DHT22;26989;45.524;10.938;2023-04-06T14:50:56;14.60;75.70
41256;DHT22;26989;45.524;10.938;2023-04-06T14:53:23;14.70;75.80
41256;DHT22;26989;45.524;10.938;2023-04-06T14:55:51;14.90;75.40
41256;DHT22;26989;45.524;10.938;2023-04-06T14:58:21;14.90;74.90
41256;DHT22;26989;45.524;10.938;2023-04-06T15:00:49;14.90;74.30
41256;DHT22;26989;45.524;10.938;2023-04-06T15:03:16;14.90;73.90
41256;DHT22;26989;45.524;10.938;2023-04-06T15:05:44;15.00;75.60
41256;DHT22;26989;45.524;10.938;2023-04-06T15:08:11;15.10;74.50
41256;DHT22;26989;45.524;10.938;2023-04-06T15:10:40;15.00;76.40
41256;DHT22;26989;45.524;10.938;2023-04-06T15:13:07;14.80;75.10
41256;DHT22;26989;45.524;10.938;2023-04-06T15:15:34;14.80;75.50
41256;DHT22;26989;45.524;10.938;2023-04-06T15:18:01;14.60;75.40
41256;DHT22;26989;45.524;10.938;2023-04-06T15:20:29;14.60;74.80
41256;DHT22;26989;45.524;10.938;2023-04-06T15:22:56;14.60;76.00
41256;DHT22;26989;45.524;10.938;2023-04-06T15:25:23;14.60;76.00
41256;DHT22;26989;45.524;10.938;2023-04-06T15:27:50;14.50;76.10
41256;DHT22;26989;45.524;10.938;2023-04-06T15:30:17;14.50;75.80
41256;DHT22;26989;45.524;10.938;2023-04-06T15:33:00;14.30;75.80
41256;DHT22;26989;45.524;10.938;2023-04-06T15:35:27;14.40;76.40
41256;DHT22;26989;45.524;10.938;2023-04-06T15:37:57;14.30;76.40
41256;DHT22;26989;45.524;10.938;2023-04-06T15:40:24;14.30;76.50